Time;durP1;ratioP1;P1;durP2;ratioP2;P2;SDS_P1;SDS_P2;PMS_P1;PMS_P2;Temp;Humidity;BMP_temperature;BMP_pressure;BME280_temperature;BME280_humidity;BME280_pressure;Samples;Min_cycle;Max_cycle;Signal;HPM_P1;HPM_P2
2023/07/09 00:01:55;;;;;;;7.43;5.90;;;;;;;25.12;49.13;101859.69;5035742;28;20029;-82
2023/07/09 00:04:21;;;;;;;6.93;5.35;;;;;;;25.12;49.22;101857.84;5041881;28;20033;-82
2023/07/09 00:06:47;;;;;;;7.30;6.03;;;;;;;25.09;49.27;101852.06;5048654;28;20045;-82
2023/07/09 00:09:15;;;;;;;7.05;5.13;;;;;;;25.12;49.46;101854.34;5033801;28;20083;-82
2023/07/09 00:11:43;;;;;;;7.80;5.57;;;;;;;25.08;49.40;101845.91;5032270;28;20033;-83
2023/07/09 00:14:14;;;;;;;7.13;5.90;;;;;;;25.07;49.27;101846.09;5035279;28;20040;-83
2023/07/09 00:16:41;;;;;;;7.30;5.50;;;;;;;25.04;49.27;101846.50;5027018;28;20044;-84
2023/07/09 00:19:19;;;;;;;8.82;6.00;;;;;;;25.05;49.15;101856.97;5029888;28;20571;-84
2023/07/09 00:21:46;;;;;;;7.30;5.18;;;;;;;24.99;49.30;101847.03;5029907;28;20044;-82
2023/07/09 00:24:12;;;;;;;7.57;5.57;;;;;;;25.06;49.57;101858.59;5031903;28;20177;-82
2023/07/09 00:26:40;;;;;;;7.72;5.80;;;;;;;25.06;49.14;101858.59;5050923;28;20101;-82
2023/07/09 00:29:12;;;;;;;10.18;6.03;;;;;;;24.98;49.32;101843.56;5032488;28;20045;-82
2023/07/09 00:31:40;;;;;;;7.35;5.35;;;;;;;25.04;49.22;101851.81;5048218;28;20049;-84
2023/07/09 00:34:11;;;;;;;8.15;5.72;;;;;;;25.06;49.18;101853.28;5048542;28;20061;-84
2023/07/09 00:36:37;;;;;;;7.05;5.75;;;;;;;25.04;49.49;101849.16;5034935;28;20116;-83
2023/07/09 00:39:04;;;;;;;7.50;5.68;;;;;;;24.99;49.45;101847.91;5018919;28;20042;-83
2023/07/09 00:41:36;;;;;;;8.70;5.50;;;;;;;25.07;49.19;101854.09;5046853;28;20628;-83
2023/07/09 00:44:24;;;;;;;8.85;5.38;;;;;;;25.06;49.14;101849.78;5030776;28;20025;-83
2023/07/09 00:46:50;;;;;;;6.88;5.45;;;;;;;25.05;49.26;101848.97;5031735;28;20064;-83
2023/07/09 00:49:46;;;;;;;6.03;5.18;;;;;;;25.03;49.21;101845.66;5035833;28;20132;-82
2023/07/09 00:52:33;;;;;;;7.75;5.57;;;;;;;25.03;49.23;101847.50;5033674;28;20033;-82
2023/07/09 00:55:00;;;;;;;6.82;5.43;;;;;;;25.03;49.30;101848.34;5047262;28;21328;-84
2023/07/09 00:57:27;;;;;;;6.30;5.32;;;;;;;25.04;49.38;101854.50;5031348;28;20677;-85
2023/07/09 01:00:10;;;;;;;7.05;5.30;;;;;;;25.02;49.40;101856.53;5025910;28;20047;-85
2023/07/09 01:02:39;;;;;;;9.50;5.57;;;;;;;25.01;49.36;101858.38;5027315;28;20109;-84
2023/07/09 01:05:06;;;;;;;6.80;5.60;;;;;;;25.03;49.27;101855.50;5034267;28;20033;-85
2023/07/09 01:07:32;;;;;;;7.53;6.10;;;;;;;25.03;49.30;101860.84;5043898;28;20396;-83
2023/07/09 01:09:58;;;;;;;6.88;5.28;;;;;;;24.99;49.52;101849.69;5030555;28;20442;-82
2023/07/09 01:12:25;;;;;;;6.65;4.97;;;;;;;25.00;49.46;101854.03;5030795;28;20029;-83
2023/07/09 01:14:54;;;;;;;7.00;5.30;;;;;;;24.96;49.26;101836.75;5048241;28;20037;-84
2023/07/09 01:17:20;;;;;;;8.07;5.22;;;;;;;25.03;49.17;101848.34;5025620;28;20103;-82
2023/07/09 01:19:50;;;;;;;6.53;5.57;;;;;;;25.02;49.35;101846.69;5032711;28;20032;-85
2023/07/09 01:22:18;;;;;;;6.55;5.70;;;;;;;25.03;49.56;101850.19;5044056;28;20045;-83
2023/07/09 01:25:06;;;;;;;6.60;5.55;;;;;;;25.01;49.52;101845.03;5044753;28;20099;-83
2023/07/09 01:27:41;;;;;;;6.63;5.60;;;;;;;25.01;49.52;101842.38;5029600;28;20065;-82
2023/07/09 01:30:11;;;;;;;6.45;5.18;;;;;;;25.00;49.33;101849.53;5037296;28;20025;-82
2023/07/09 01:32:37;;;;;;;7.05;5.68;;;;;;;24.99;49.01;101844.38;5035087;28;20478;-82
2023/07/09 01:35:06;;;;;;;6.53;5.13;;;;;;;24.98;49.09;101840.88;5033215;28;20065;-82
2023/07/09 01:37:36;;;;;;;6.57;5.18;;;;;;;25.02;49.14;101848.53;5055188;28;20029;-83
2023/07/09 01:40:04;;;;;;;6.43;5.13;;;;;;;24.95;49.32;101835.91;5057752;28;20030;-83
2023/07/09 01:42:32;;;;;;;6.50;5.67;;;;;;;25.00;49.32;101846.88;5036986;28;20173;-83
2023/07/09 01:44:57;;;;;;;7.13;5.85;;;;;;;25.00;49.17;101843.38;5036685;28;20948;-83
2023/07/09 01:47:24;;;;;;;7.05;5.70;;;;;;;24.96;49.20;101836.75;5025484;28;20045;-82
2023/07/09 01:49:51;;;;;;;6.93;5.30;;;;;;;24.98;49.32;101845.38;5033875;28;20113;-82
2023/07/09 01:52:19;;;;;;;6.82;5.50;;;;;;;24.96;49.30;101832.25;5035169;28;20064;-82
2023/07/09 01:54:49;;;;;;;8.13;5.53;;;;;;;25.00;49.21;101840.72;5041959;28;20034;-83
2023/07/09 01:57:24;;;;;;;7.40;5.45;;;;;;;24.91;49.06;101818.66;5036363;28;20041;-83
2023/07/09 01:59:57;;;;;;;6.18;5.40;;;;;;;24.98;49.16;101835.56;5035668;28;20487;-84
2023/07/09 02:02:25;;;;;;;7.72;5.85;;;;;;;24.95;49.20;101832.41;5050826;28;20068;-84
2023/07/09 02:04:53;;;;;;;7.75;5.40;;;;;;;24.97;49.28;101836.56;5034880;28;20526;-84
2023/07/09 02:07:20;;;;;;;6.53;5.13;;;;;;;24.98;49.35;101837.41;5039920;28;20068;-83
2023/07/09 02:09:45;;;;;;;6.63;5.75;;;;;;;24.92;49.24;101830.13;5040712;28;20548;-83
2023/07/09 02:12:12;;;;;;;7.07;5.40;;;;;;;24.98;49.16;101840.06;5035927;28;20120;-84
2023/07/09 02:14:39;;;;;;;6.72;5.75;;;;;;;24.95;49.50;101837.75;5041551;28;20037;-84
2023/07/09 02:17:05;;;;;;;6.85;5.28;;;;;;;24.97;49.27;101841.91;5037429;28;20439;-84
2023/07/09 02:19:30;;;;;;;8.13;5.80;;;;;;;24.96;49.19;101844.75;5039631;28;20025;-84
2023/07/09 02:21:57;;;;;;;6.10;5.30;;;;;;;24.90;49.21;101832.16;5041449;28;20061;-83
2023/07/09 02:24:24;;;;;;;7.15;5.90;;;;;;;24.95;49.23;101841.25;5031113;28;20373;-81
2023/07/09 02:27:02;;;;;;;7.65;5.53;;;;;;;24.95;49.23;101843.06;5041228;28;20041;-83
2023/07/09 02:29:29;;;;;;;6.05;5.38;;;;;;;24.96;49.10;101840.25;5029183;28;20103;-83
2023/07/09 02:31:57;;;;;;;6.57;5.32;;;;;;;24.95;49.28;101843.91;5033050;28;20697;-84
2023/07/09 02:34:25;;;;;;;7.07;5.65;;;;;;;24.87;49.35;101822.72;5030163;28;20102;-83
2023/07/09 02:36:53;;;;;;;6.40;5.00;;;;;;;24.91;49.32;101829.31;5027966;28;20465;-82
2023/07/09 02:39:20;;;;;;;6.87;5.80;;;;;;;24.88;49.30;101826.22;5029461;28;20057;-83
2023/07/09 02:41:47;;;;;;;6.03;5.35;;;;;;;24.95;49.36;101832.41;5045576;28;20057;-83
2023/07/09 02:44:13;;;;;;;6.88;5.50;;;;;;;24.94;49.35;101836.91;5031898;28;20037;-83
2023/07/09 02:46:39;;;;;;;7.57;5.57;;;;;;;24.95;49.33;101835.09;5033938;28;20041;-83
2023/07/09 02:49:06;;;;;;;6.57;5.07;;;;;;;24.93;49.07;101837.94;5032949;28;20099;-82
2023/07/09 02:51:33;;;;;;;7.57;5.75;;;;;;;24.94;48.94;101842.25;5034775;28;20065;-83
2023/07/09 02:54:02;;;;;;;7.72;6.00;;;;;;;24.94;49.20;101839.59;5028437;28;20033;-81
2023/07/09 02:56:29;;;;;;;6.95;5.82;;;;;;;24.93;49.17;101845.09;5032441;28;20645;-82
2023/07/09 02:58:54;;;;;;;6.43;5.47;;;;;;;24.88;49.04;101832.38;5030888;28;20045;-82
2023/07/09 03:01:24;;;;;;;6.75;5.53;;;;;;;24.93;49.32;101850.44;5027776;28;20039;-83
2023/07/09 03:03:52;;;;;;;11.15;6.03;;;;;;;24.93;49.20;101845.94;5050079;28;20117;-80
2023/07/09 03:06:22;;;;;;;7.03;5.22;;;;;;;24.91;49.07;101847.97;5032689;28;20041;-83
2023/07/09 03:08:48;;;;;;;7.90;5.38;;;;;;;24.92;49.28;101848.78;5024797;28;20030;-82
2023/07/09 03:11:15;;;;;;;7.40;5.75;;;;;;;24.91;49.36;101834.66;5026692;28;20399;-82
2023/07/09 03:13:41;;;;;;;5.20;4.55;;;;;;;24.89;49.32;101841.19;5023148;28;20041;-83
2023/07/09 03:16:07;;;;;;;7.00;5.43;;;;;;;24.91;49.26;101844.47;5007033;28;20058;-84
2023/07/09 03:18:32;;;;;;;7.53;5.70;;;;;;;24.91;49.16;101839.97;5045708;28;20042;-84
2023/07/09 03:20:58;;;;;;;7.07;5.88;;;;;;;24.87;49.16;101833.38;5019581;28;20499;-82
2023/07/09 03:23:25;;;;;;;7.05;5.43;;;;;;;24.87;49.10;101832.56;5035008;28;20073;-82
2023/07/09 03:25:50;;;;;;;8.02;6.22;;;;;;;24.90;49.28;101838.31;5051193;28;20069;-83
2023/07/09 03:28:16;;;;;;;7.38;5.68;;;;;;;24.87;49.40;101844.03;5060116;28;20072;-85
2023/07/09 03:30:42;;;;;;;6.47;5.75;;;;;;;24.90;49.39;101841.00;5038735;28;20443;-83
2023/07/09 03:33:09;;;;;;;7.18;5.38;;;;;;;24.86;49.26;101836.22;5042019;28;20053;-84
2023/07/09 03:35:36;;;;;;;7.28;6.25;;;;;;;24.79;48.88;101822.03;5037079;28;20068;-83
2023/07/09 03:38:01;;;;;;;7.15;5.85;;;;;;;24.84;49.23;101838.25;5041340;28;20384;-83
2023/07/09 03:40:27;;;;;;;6.57;5.25;;;;;;;24.81;49.26;101830.66;5057927;28;20116;-82
2023/07/09 03:42:52;;;;;;;5.65;4.88;;;;;;;24.88;49.03;101836.88;5037615;28;20049;-83
2023/07/09 03:45:18;;;;;;;6.75;5.45;;;;;;;24.89;49.31;101846.50;5038242;28;20041;-83
2023/07/09 03:47:43;;;;;;;6.68;5.20;;;;;;;24.88;49.32;101848.34;5044000;28;20040;-84
2023/07/09 03:50:11;;;;;;;6.15;5.38;;;;;;;24.86;49.06;101844.22;5043342;28;20412;-82
2023/07/09 03:52:37;;;;;;;6.93;5.95;;;;;;;24.85;49.34;101846.06;5040323;28;20052;-81
2023/07/09 03:55:04;;;;;;;7.45;5.10;;;;;;;24.87;49.03;101843.22;5037871;28;20372;-83
2023/07/09 03:57:33;;;;;;;6.63;5.38;;;;;;;24.89;49.24;101852.66;5038264;28;20029;-83
2023/07/09 03:59:58;;;;;;;7.82;5.28;;;;;;;24.90;49.08;101851.66;5038227;28;20033;-83
2023/07/09 04:02:24;;;;;;;6.25;5.07;;;;;;;24.91;49.28;101849.81;5038002;28;20518;-83
2023/07/09 04:04:49;;;;;;;7.38;5.82;;;;;;;24.83;48.98;101841.94;5038178;28;20046;-83
2023/07/09 04:07:16;;;;;;;7.03;5.45;;;;;;;24.90;48.96;101848.97;5035159;28;20117;-83
2023/07/09 04:09:42;;;;;;;6.13;5.22;;;;;;;24.91;49.16;101842.63;5045218;28;20113;-81
2023/07/09 04:12:08;;;;;;;6.70;5.38;;;;;;;24.90;49.04;101843.66;5040367;28;20041;-81
2023/07/09 04:14:34;;;;;;;6.63;5.50;;;;;;;24.89;49.33;101852.66;5040030;28;20490;-82
2023/07/09 04:17:00;;;;;;;7.80;5.20;;;;;;;24.88;49.08;101848.34;5033694;28;20034;-83
2023/07/09 04:19:25;;;;;;;7.20;5.13;;;;;;;24.88;48.96;101842.19;5040159;28;20033;-83
2023/07/09 04:21:52;;;;;;;6.30;5.50;;;;;;;24.84;48.80;101833.75;5038118;28;20049;-85
2023/07/09 04:24:19;;;;;;;6.43;5.28;;;;;;;24.91;48.89;101842.63;5035413;28;20073;-84
2023/07/09 04:26:45;;;;;;;6.30;5.20;;;;;;;24.91;49.09;101844.47;5034663;28;20091;-83
2023/07/09 04:29:10;;;;;;;7.07;5.20;;;;;;;24.91;49.04;101841.81;5036489;28;20041;-83
2023/07/09 04:31:37;;;;;;;7.22;5.53;;;;;;;24.91;48.88;101847.97;5036099;28;20423;-81
2023/07/09 04:34:04;;;;;;;7.22;5.85;;;;;;;24.88;48.96;101842.19;5049736;28;20411;-82
2023/07/09 04:36:29;;;;;;;6.93;5.70;;;;;;;24.88;48.88;101844.84;5036690;28;20040;-82
2023/07/09 04:38:55;;;;;;;6.03;5.30;;;;;;;24.90;48.79;101834.84;5031937;28;20042;-83
2023/07/09 04:41:20;;;;;;;6.57;4.85;;;;;;;24.91;49.14;101844.47;5053551;28;20052;-83
2023/07/09 04:43:46;;;;;;;6.50;5.38;;;;;;;24.93;49.03;101850.44;5033929;28;20050;-83
2023/07/09 04:46:11;;;;;;;6.50;5.63;;;;;;;24.93;48.94;101845.94;5051692;28;20109;-82
2023/07/09 04:48:38;;;;;;;7.10;4.97;;;;;;;24.93;49.03;101847.78;5035501;28;20064;-82
2023/07/09 04:51:04;;;;;;;8.18;5.35;;;;;;;24.93;48.97;101843.28;5036649;28;20662;-82
2023/07/09 04:53:29;;;;;;;6.22;5.40;;;;;;;24.92;48.80;101841.63;5031075;28;20041;-80
2023/07/09 04:55:55;;;;;;;6.47;5.35;;;;;;;24.93;48.94;101837.13;5032817;28;20048;-84
2023/07/09 04:58:21;;;;;;;8.75;6.22;;;;;;;24.91;48.73;101833.81;5034343;28;20040;-85
2023/07/09 05:00:47;;;;;;;6.63;5.35;;;;;;;24.94;48.76;101841.44;5037106;28;20115;-85
2023/07/09 05:03:12;;;;;;;7.60;5.30;;;;;;;24.91;48.99;101844.47;5037345;28;20045;-84
2023/07/09 05:05:45;;;;;;;7.35;5.20;;;;;;;24.92;48.79;101846.94;5030289;28;20041;-84
2023/07/09 05:08:14;;;;;;;7.15;5.57;;;;;;;24.91;48.99;101844.47;5036889;28;20049;-84
2023/07/09 05:10:44;;;;;;;7.07;5.60;;;;;;;24.94;48.77;101852.91;5035586;28;20059;-82
2023/07/09 05:13:10;;;;;;;6.63;5.18;;;;;;;24.94;48.87;101857.41;5041630;28;20041;-81
2023/07/09 05:15:41;;;;;;;7.45;5.53;;;;;;;24.88;48.87;101844.84;5035760;28;20366;-79
2023/07/09 05:18:08;;;;;;;6.20;5.50;;;;;;;24.95;48.75;101854.56;5030917;28;20104;-82
2023/07/09 05:20:34;;;;;;;6.20;5.25;;;;;;;24.96;48.72;101855.41;5038967;28;20505;-82
2023/07/09 05:23:00;;;;;;;7.45;5.93;;;;;;;24.95;49.00;101851.91;5037655;28;20049;-81
2023/07/09 05:25:25;;;;;;;6.15;5.53;;;;;;;24.95;48.82;101851.91;5035415;28;20569;-81
2023/07/09 05:27:51;;;;;;;7.00;5.72;;;;;;;24.95;49.04;101854.56;5039710;28;20119;-82
2023/07/09 05:30:18;;;;;;;5.78;5.18;;;;;;;24.96;48.76;101853.56;5035069;28;20862;-82
2023/07/09 05:32:44;;;;;;;8.18;5.88;;;;;;;24.95;48.91;101851.91;5039363;28;20083;-81
2023/07/09 05:35:09;;;;;;;6.45;5.10;;;;;;;24.94;48.73;101852.91;5045599;28;20045;-83
2023/07/09 05:37:36;;;;;;;6.50;5.75;;;;;;;24.93;48.71;101850.44;5039169;28;20045;-82
2023/07/09 05:40:04;;;;;;;7.38;5.88;;;;;;;24.98;48.70;101853.38;5043179;28;20541;-82
2023/07/09 05:42:29;;;;;;;7.78;5.05;;;;;;;24.99;48.77;101852.38;5037985;28;20048;-82
2023/07/09 05:44:55;;;;;;;6.85;5.43;;;;;;;24.94;48.72;101838.75;5039325;28;20040;-83
2023/07/09 05:47:21;;;;;;;6.43;5.20;;;;;;;24.99;48.71;101849.69;5031120;28;20046;-82
2023/07/09 05:49:49;;;;;;;7.00;5.70;;;;;;;25.02;48.70;101848.53;5033539;28;20045;-83
2023/07/09 05:52:15;;;;;;;6.13;5.18;;;;;;;24.99;48.47;101847.91;5035180;28;20099;-83
2023/07/09 05:54:40;;;;;;;5.60;5.00;;;;;;;25.03;48.78;101864.31;5033716;28;20479;-82
2023/07/09 05:57:06;;;;;;;6.70;5.10;;;;;;;24.98;48.80;101851.53;5032820;28;20029;-81
2023/07/09 05:59:31;;;;;;;7.82;6.03;;;;;;;25.04;48.71;101862.47;5032070;28;20387;-83
2023/07/09 06:01:57;;;;;;;6.32;5.32;;;;;;;25.05;48.89;101867.63;5049557;28;20057;-84
2023/07/09 06:04:26;;;;;;;7.22;5.15;;;;;;;24.98;48.61;101856.88;5028937;28;20041;-81
2023/07/09 06:06:51;;;;;;;5.37;4.87;;;;;;;25.04;48.92;101868.63;5035313;28;20055;-82
2023/07/09 06:09:17;;;;;;;8.65;5.57;;;;;;;25.05;48.93;101874.78;5033621;28;20124;-82
2023/07/09 06:11:43;;;;;;;8.75;5.80;;;;;;;25.07;48.56;101872.75;5034530;28;20045;-81
2023/07/09 06:14:10;;;;;;;5.72;5.10;;;;;;;25.07;48.53;101875.41;5036168;28;20499;-80
2023/07/09 06:16:37;;;;;;;5.70;4.93;;;;;;;25.02;48.56;101870.66;5036996;28;20516;-81
2023/07/09 06:19:02;;;;;;;6.90;5.40;;;;;;;24.99;49.02;101863.03;5032377;28;20038;-83
2023/07/09 06:21:28;;;;;;;6.28;5.20;;;;;;;25.06;48.52;101877.25;5035327;28;20041;-80
2023/07/09 06:23:53;;;;;;;6.05;5.43;;;;;;;25.08;48.52;101871.75;5031460;28;20037;-81
2023/07/09 06:26:19;;;;;;;8.35;5.82;;;;;;;25.11;48.86;101872.19;5030142;28;20068;-80
2023/07/09 06:28:45;;;;;;;7.20;5.47;;;;;;;25.07;48.53;101870.91;5033473;28;20075;-79
2023/07/09 06:31:10;;;;;;;6.72;5.32;;;;;;;25.09;48.65;101876.06;5030616;28;20058;-79
2023/07/09 06:33:36;;;;;;;7.25;5.78;;;;;;;25.08;48.75;101877.91;5034382;28;20475;-80
2023/07/09 06:36:02;;;;;;;6.40;5.38;;;;;;;25.12;48.65;101884.50;5034219;28;20064;-80
2023/07/09 06:38:28;;;;;;;5.70;5.10;;;;;;;25.14;48.95;101884.34;5025333;28;20033;-82
2023/07/09 06:40:56;;;;;;;6.30;5.28;;;;;;;25.14;48.63;101884.34;5032990;28;20036;-82
2023/07/09 06:43:22;;;;;;;7.05;5.75;;;;;;;25.11;49.00;101882.84;5029624;28;20041;-82
2023/07/09 06:45:56;;;;;;;6.60;5.40;;;;;;;25.12;48.73;101884.50;5018180;28;20033;-81
2023/07/09 06:48:23;;;;;;;6.50;5.32;;;;;;;25.17;48.50;101886.59;5031529;28;20104;-82
2023/07/09 06:50:49;;;;;;;7.90;5.68;;;;;;;25.17;48.90;101890.09;5029542;28;20042;-82
2023/07/09 06:53:15;;;;;;;7.38;6.00;;;;;;;25.19;48.75;101889.91;5029779;28;20104;-83
2023/07/09 06:55:41;;;;;;;7.43;5.80;;;;;;;25.22;48.57;101892.19;5032768;28;20041;-81
2023/07/09 06:58:08;;;;;;;8.25;5.68;;;;;;;25.17;48.55;101883.94;5032454;28;20041;-79
2023/07/09 07:00:35;;;;;;;7.38;5.82;;;;;;;25.24;48.60;101892.81;5033009;28;20041;-81
2023/07/09 07:03:01;;;;;;;9.38;6.28;;;;;;;25.23;48.70;101880.50;5045161;28;20052;-80
2023/07/09 07:05:26;;;;;;;8.00;6.03;;;;;;;25.28;48.48;101886.09;5045342;28;20041;-80
2023/07/09 07:07:53;;;;;;;7.63;5.47;;;;;;;25.29;48.39;101896.56;5034454;28;20042;-80
2023/07/09 07:10:19;;;;;;;6.95;5.55;;;;;;;25.28;48.61;101892.25;5036081;28;20033;-80
2023/07/09 07:12:47;;;;;;;8.95;6.38;;;;;;;25.30;48.41;101884.88;5029532;28;20065;-80
2023/07/09 07:15:15;;;;;;;9.10;5.63;;;;;;;25.33;48.39;101882.88;5052143;28;20037;-80
2023/07/09 07:17:41;;;;;;;7.63;5.88;;;;;;;25.35;48.33;101883.50;5029946;28;20096;-80
2023/07/09 07:20:08;;;;;;;7.05;5.63;;;;;;;25.38;48.35;101886.59;5051929;28;20643;-80
2023/07/09 07:22:34;;;;;;;8.48;6.10;;;;;;;25.40;48.63;101886.41;5032603;28;20033;-80
2023/07/09 07:25:00;;;;;;;8.55;5.28;;;;;;;25.44;48.28;101891.16;5032942;28;20046;-80
2023/07/09 07:27:25;;;;;;;6.88;5.40;;;;;;;25.38;48.27;101875.13;5044201;28;20045;-80
2023/07/09 07:29:51;;;;;;;7.97;5.95;;;;;;;25.51;48.41;101889.41;5034492;28;20037;-80
2023/07/09 07:32:16;;;;;;;9.40;6.82;;;;;;;25.52;48.63;101884.88;5033737;28;20037;-80
2023/07/09 07:34:42;;;;;;;9.32;5.72;;;;;;;25.46;48.43;101880.31;5033556;28;20041;-80
2023/07/09 07:37:08;;;;;;;7.40;5.95;;;;;;;25.46;48.47;101875.78;5024168;28;20057;-79
2023/07/09 07:39:33;;;;;;;8.50;5.82;;;;;;;25.56;48.49;101894.97;5029875;28;20053;-79
2023/07/09 07:41:59;;;;;;;8.48;6.28;;;;;;;25.56;48.59;101900.31;5032741;28;20033;-79
2023/07/09 07:44:24;;;;;;;8.85;6.18;;;;;;;25.59;48.20;101907.09;5031742;28;20040;-80
2023/07/09 07:46:50;;;;;;;6.90;5.43;;;;;;;25.54;48.18;101894.34;5048171;28;20561;-80
2023/07/09 07:49:15;;;;;;;9.15;5.45;;;;;;;25.57;48.08;101887.78;5027188;28;20057;-79
2023/07/09 07:51:42;;;;;;;6.93;5.75;;;;;;;25.65;48.39;101902.81;5031293;28;20034;-79
2023/07/09 07:54:09;;;;;;;6.90;5.47;;;;;;;25.67;48.29;101903.44;5035959;28;20116;-79
2023/07/09 07:56:36;;;;;;;6.40;5.25;;;;;;;25.69;48.43;101912.97;5029174;28;20060;-79
2023/07/09 07:59:02;;;;;;;7.70;6.00;;;;;;;25.61;48.37;101894.38;5030936;28;20511;-79
2023/07/09 08:01:28;;;;;;;8.80;6.68;;;;;;;25.76;48.36;101916.50;5030156;28;20038;-79
2023/07/09 08:03:54;;;;;;;7.30;5.70;;;;;;;25.79;48.00;101907.28;5032015;28;20087;-79
2023/07/09 08:06:21;;;;;;;8.15;6.25;;;;;;;25.82;48.22;101917.56;5044648;28;20050;-78
2023/07/09 08:08:47;;;;;;;6.95;5.45;;;;;;;25.82;48.23;101913.06;5023134;28;20571;-82
2023/07/09 08:11:12;;;;;;;7.10;5.55;;;;;;;25.83;48.27;101917.38;5032793;28;20048;-85
2023/07/09 08:13:38;;;;;;;8.43;5.78;;;;;;;25.78;48.13;101893.13;5041333;28;20053;-84
2023/07/09 08:16:08;;;;;;;7.53;6.20;;;;;;;25.81;48.29;101895.41;5032648;28;20060;-84
2023/07/09 08:18:33;;;;;;;8.18;5.72;;;;;;;25.80;47.96;101883.06;5026978;28;20419;-84
2023/07/09 08:21:00;;;;;;;7.80;5.55;;;;;;;25.92;48.12;101901.22;5033440;28;20018;-84
2023/07/09 08:23:25;;;;;;;9.77;5.80;;;;;;;25.95;47.56;101898.16;5051293;28;20113;-84
2023/07/09 08:25:53;;;;;;;8.10;6.22;;;;;;;25.71;47.89;101854.09;5035824;28;20068;-84
2023/07/09 08:28:19;;;;;;;6.90;6.00;;;;;;;25.87;47.64;101875.13;5033128;28;20657;-84
2023/07/09 08:30:45;;;;;;;6.63;5.63;;;;;;;25.86;47.63;101876.16;5035133;28;20052;-85
2023/07/09 08:33:10;;;;;;;6.68;5.78;;;;;;;26.00;47.62;101898.41;5034660;28;20052;-84
2023/07/09 08:35:36;;;;;;;8.30;5.78;;;;;;;25.98;48.00;101895.09;5031820;28;20033;-84
2023/07/09 08:38:01;;;;;;;7.32;5.15;;;;;;;25.77;47.68;101855.97;5034883;28;20055;-85
2023/07/09 08:40:27;;;;;;;7.38;5.65;;;;;;;26.00;47.78;101896.56;5002164;28;20034;-85
2023/07/09 08:43:10;;;;;;;7.15;6.00;;;;;;;25.94;47.91;101877.84;5034177;28;20101;-84
2023/07/09 08:45:57;;;;;;;8.18;6.05;;;;;;;26.02;47.56;101899.03;5033949;28;20041;-84
2023/07/09 08:48:32;;;;;;;7.13;5.88;;;;;;;26.02;48.02;101899.03;5031519;28;20033;-85
2023/07/09 08:51:04;;;;;;;6.03;5.35;;;;;;;26.02;47.88;101896.34;5034485;28;20128;-84
2023/07/09 08:53:45;;;;;;;7.82;5.97;;;;;;;25.97;47.82;101888.94;5032823;28;20041;-85
2023/07/09 08:56:13;;;;;;;6.97;5.47;;;;;;;26.05;48.03;101893.31;5031804;28;20033;-85
2023/07/09 08:58:40;;;;;;;8.10;5.75;;;;;;;26.05;47.70;101902.16;5026441;28;20069;-85
2023/07/09 09:01:32;;;;;;;7.80;6.00;;;;;;;26.04;47.54;101892.50;5035447;28;20533;-85
2023/07/09 09:04:19;;;;;;;7.57;6.15;;;;;;;26.10;47.60;101899.72;5034262;28;20050;-85
2023/07/09 09:06:51;;;;;;;7.30;5.43;;;;;;;26.05;47.64;101887.97;5032752;28;20432;-85
2023/07/09 09:09:39;;;;;;;7.80;5.50;;;;;;;26.13;47.92;101890.50;5028428;28;20040;-81
2023/07/09 09:12:18;;;;;;;6.70;5.37;;;;;;;26.12;47.79;101892.34;5036487;28;20029;-81
2023/07/09 09:14:49;;;;;;;7.75;5.45;;;;;;;26.11;47.80;101889.88;5034093;28;20071;-81
2023/07/09 09:17:18;;;;;;;7.75;5.40;;;;;;;26.15;47.79;101885.78;5014893;28;20029;-81
2023/07/09 09:19:54;;;;;;;6.93;5.57;;;;;;;26.15;47.92;101886.59;5032649;28;20494;-81
2023/07/09 09:22:56;;;;;;;7.38;5.68;;;;;;;26.05;47.73;101869.31;5049238;28;20538;-81
2023/07/09 09:25:31;;;;;;;7.35;5.50;;;;;;;26.14;47.69;101884.13;5008280;28;20075;-81
2023/07/09 09:28:02;;;;;;;7.55;5.60;;;;;;;26.20;47.79;101896.69;5026686;28;20154;-81
2023/07/09 09:30:29;;;;;;;7.35;5.32;;;;;;;26.21;47.62;101890.31;5033547;28;20057;-81
2023/07/09 09:32:58;;;;;;;7.57;5.30;;;;;;;26.22;47.54;101894.66;5034195;28;20033;-81
2023/07/09 09:35:35;;;;;;;8.02;5.60;;;;;;;26.23;47.84;101890.16;5049868;28;20052;-81
2023/07/09 09:38:01;;;;;;;6.68;5.18;;;;;;;26.22;47.94;101886.66;5031154;28;20067;-81
2023/07/09 09:40:32;;;;;;;6.47;5.43;;;;;;;26.17;47.95;101886.41;5033200;28;20072;-82
2023/07/09 09:43:00;;;;;;;7.18;5.35;;;;;;;26.18;48.04;101885.38;5032899;28;20042;-81
2023/07/09 09:45:34;;;;;;;7.00;6.18;;;;;;;26.17;47.70;101884.56;5050274;28;20049;-82
2023/07/09 09:48:01;;;;;;;6.97;5.43;;;;;;;26.16;47.55;101876.75;5032806;28;20033;-82
2023/07/09 09:50:31;;;;;;;7.35;5.70;;;;;;;26.20;47.68;101884.16;5025862;28;20061;-82
2023/07/09 09:52:59;;;;;;;10.68;5.65;;;;;;;26.16;47.60;101882.06;5032097;28;20029;-81
2023/07/09 09:55:29;;;;;;;7.47;5.80;;;;;;;26.24;47.72;101894.47;5049333;28;20041;-83
2023/07/09 09:57:56;;;;;;;8.45;5.63;;;;;;;26.24;48.01;101905.16;5048604;28;20042;-82
2023/07/09 10:00:25;;;;;;;7.82;5.47;;;;;;;26.13;47.92;101888.66;5016496;28;20033;-82
2023/07/09 10:02:56;;;;;;;6.88;5.13;;;;;;;26.28;47.92;101911.72;5034035;28;20128;-82
2023/07/09 10:05:31;;;;;;;7.38;5.72;;;;;;;26.19;47.71;101895.84;5014179;28;20060;-82
2023/07/09 10:08:05;;;;;;;9.05;5.85;;;;;;;26.28;48.09;101911.72;5031268;28;20029;-82
2023/07/09 10:10:32;;;;;;;6.95;5.78;;;;;;;26.28;47.95;101912.56;5034500;28;20033;-81
2023/07/09 10:13:07;;;;;;;7.10;5.25;;;;;;;26.29;47.81;101908.03;5016736;28;20095;-81
2023/07/09 10:15:41;;;;;;;6.15;5.05;;;;;;;26.30;47.79;101910.50;5030408;28;20033;-82
2023/07/09 10:18:42;;;;;;;6.32;5.28;;;;;;;26.29;47.76;101908.03;5029130;28;20041;-82
2023/07/09 10:21:23;;;;;;;7.28;5.00;;;;;;;26.22;47.71;101884.00;5029064;28;20056;-81
2023/07/09 10:24:08;;;;;;;6.35;5.28;;;;;;;26.28;47.60;101901.88;5031874;28;20124;-81
2023/07/09 10:26:49;;;;;;;6.50;5.07;;;;;;;26.27;47.76;101905.56;5030232;28;20041;-81
2023/07/09 10:29:36;;;;;;;6.90;4.95;;;;;;;26.28;47.79;101903.72;5031608;28;20075;-83
2023/07/09 10:32:27;;;;;;;7.40;5.65;;;;;;;26.23;48.09;101890.97;5027674;28;20037;-81
2023/07/09 10:35:07;;;;;;;7.50;5.43;;;;;;;26.31;48.01;101901.47;5027987;28;20076;-81
2023/07/09 10:37:54;;;;;;;7.07;5.47;;;;;;;26.29;47.75;101900.03;5031913;28;20033;-81
2023/07/09 10:40:52;;;;;;;6.75;5.40;;;;;;;26.31;48.00;101898.81;5028841;28;20041;-81
2023/07/09 10:43:50;;;;;;;6.03;4.93;;;;;;;26.31;48.06;101893.47;5009604;28;20040;-80
2023/07/09 10:46:21;;;;;;;7.10;5.13;;;;;;;26.29;47.97;101889.34;5026224;28;20053;-80
2023/07/09 10:48:50;;;;;;;6.68;5.22;;;;;;;26.32;47.85;101889.78;5025844;28;20051;-80
2023/07/09 10:51:50;;;;;;;7.05;5.20;;;;;;;26.29;48.19;101892.03;5029575;28;20050;-80
2023/07/09 10:54:39;;;;;;;6.25;5.35;;;;;;;26.26;48.16;101885.22;5010964;28;20100;-81
2023/07/09 10:57:18;;;;;;;5.83;4.90;;;;;;;26.29;47.86;101876.81;5029390;28;20052;-81
2023/07/09 10:59:48;;;;;;;7.03;5.45;;;;;;;26.35;47.92;101880.56;5029230;28;20555;-80
2023/07/09 11:02:34;;;;;;;7.55;5.13;;;;;;;26.31;47.67;101885.47;5031220;28;20399;-80
2023/07/09 11:05:03;;;;;;;6.82;5.55;;;;;;;26.31;47.97;101874.78;5028528;28;20037;-81
2023/07/09 11:07:36;;;;;;;6.85;5.35;;;;;;;26.36;48.15;101876.88;5028614;28;20048;-81
2023/07/09 11:10:07;;;;;;;7.15;5.03;;;;;;;26.34;47.69;101874.38;5027064;28;20467;-80
2023/07/09 11:12:39;;;;;;;6.95;5.35;;;;;;;26.35;48.18;101870.72;5024865;28;20056;-81
2023/07/09 11:15:10;;;;;;;6.30;5.18;;;;;;;26.29;48.00;101858.13;5023372;28;20033;-81
2023/07/09 11:17:40;;;;;;;7.15;4.88;;;;;;;26.35;47.85;101861.88;5021016;28;20037;-82
2023/07/09 11:20:27;;;;;;;7.22;5.35;;;;;;;26.35;47.77;101859.22;5030477;28;20569;-81
2023/07/09 11:23:05;;;;;;;7.15;5.50;;;;;;;26.35;48.06;101857.34;5026531;28;20029;-80
2023/07/09 11:25:44;;;;;;;5.43;4.82;;;;;;;26.27;47.62;101846.81;5020412;28;21388;-80
2023/07/09 11:28:10;;;;;;;5.95;4.70;;;;;;;26.32;48.19;101846.22;5025065;28;20033;-80
2023/07/09 11:30:50;;;;;;;7.15;5.03;;;;;;;26.38;47.83;101845.44;5008445;28;20038;-80
2023/07/09 11:33:19;;;;;;;6.50;4.75;;;;;;;26.33;48.09;101846.03;5029622;28;20041;-80
2023/07/09 11:35:46;;;;;;;6.27;5.23;;;;;;;26.39;47.69;101841.75;5029205;28;20116;-80